Terminal Aerodrome Forecast
Issued by NWS

Home | Current Version | Previous Version | Text Only | Print | Product List | Glossary On
Versions: 1 2 3 4 5 6 7 8 9 10 11 12 13
019
FTUS44 KEPZ 182324
TAFLRU

TAF
KLRU 182322Z 1900/1924 24005KT P6SM FEW250
     FM1922000 23010KT P6SM FEW250=

USA.gov is the U.S. government's official web portal to all federal, state and local government web resources and services.